createdAt,value
2023-04-17T00:00:39.210Z,3.93
2023-04-17T00:05:46.497Z,3.79
2023-04-17T00:11:00.185Z,3.70
2023-04-17T00:16:10.874Z,3.56
2023-04-17T00:21:14.479Z,3.44
2023-04-17T00:26:17.357Z,3.29
2023-04-17T00:31:20.772Z,3.16
2023-04-17T00:36:23.671Z,3.06
2023-04-17T00:41:26.593Z,2.98
2023-04-17T00:46:29.862Z,2.92
2023-04-17T00:51:33.485Z,2.84
2023-04-17T00:56:36.598Z,2.81
2023-04-17T01:01:39.522Z,2.73
2023-04-17T01:06:42.716Z,2.71
2023-04-17T01:11:46.737Z,2.66
2023-04-17T01:16:50.718Z,2.60
2023-04-17T01:21:53.952Z,2.53
2023-04-17T01:26:58.093Z,2.47
2023-04-17T01:32:02.008Z,2.50
2023-04-17T01:37:05.555Z,2.53
2023-04-17T01:42:08.483Z,2.52
2023-04-17T01:47:11.429Z,2.49
2023-04-17T01:52:14.314Z,2.44
2023-04-17T01:57:35.642Z,2.47
2023-04-17T02:02:38.890Z,2.52
2023-04-17T02:07:42.119Z,2.57
2023-04-17T02:12:44.982Z,2.69
2023-04-17T02:17:48.071Z,2.75
2023-04-17T02:22:51.099Z,2.80
2023-04-17T02:27:55.124Z,2.90
2023-04-17T02:32:58.654Z,3.02
2023-04-17T02:38:01.655Z,3.09
2023-04-17T02:43:04.804Z,3.13
2023-04-17T02:48:07.901Z,3.21
2023-04-17T02:53:11.948Z,3.33
2023-04-17T02:58:15.086Z,3.33
2023-04-17T03:03:18.335Z,3.39
2023-04-17T03:08:40.346Z,3.52
2023-04-17T03:13:43.641Z,3.66
2023-04-17T03:18:46.454Z,3.73
2023-04-17T03:23:49.304Z,3.85
2023-04-17T03:28:53.383Z,3.96
2023-04-17T03:33:56.555Z,4.11
2023-04-17T03:39:00.678Z,4.18
2023-04-17T03:44:03.814Z,4.30
2023-04-17T03:49:07.168Z,4.38
2023-04-17T03:54:29.376Z,4.48
2023-04-17T03:59:33.996Z,4.65
2023-04-17T04:04:37.220Z,4.78
2023-04-17T04:09:59.079Z,4.98
2023-04-17T04:15:03.381Z,5.21
2023-04-17T04:20:09.332Z,5.47
2023-04-17T04:25:12.584Z,5.89
2023-04-17T04:30:25.663Z,6.18
2023-04-17T04:35:35.695Z,6.55
2023-04-17T04:40:38.756Z,6.88
2023-04-17T04:45:44.539Z,7.19
2023-04-17T04:50:47.786Z,7.42
2023-04-17T04:55:51.073Z,7.68
2023-04-17T05:00:54.260Z,8.05
2023-04-17T05:06:04.556Z,8.30
2023-04-17T05:11:15.902Z,8.35
2023-04-17T05:16:19.300Z,8.58
2023-04-17T05:21:22.362Z,8.92
2023-04-17T05:26:27.592Z,8.97
2023-04-17T05:31:30.891Z,9.17
2023-04-17T05:36:35.722Z,9.18
2023-04-17T05:41:40.398Z,9.57
2023-04-17T05:46:43.280Z,9.85
2023-04-17T05:51:47.553Z,10.13
2023-04-17T05:56:50.752Z,10.26
2023-04-17T06:01:53.862Z,10.42
2023-04-17T06:06:58.222Z,10.65
2023-04-17T06:12:01.568Z,10.68
2023-04-17T06:17:04.550Z,10.90
2023-04-17T06:22:07.541Z,11.00
2023-04-17T06:27:10.448Z,11.01
2023-04-17T06:32:13.476Z,11.43
2023-04-17T06:37:16.945Z,11.60
2023-04-17T06:42:20.788Z,11.71
2023-04-17T06:47:35.032Z,12.15
2023-04-17T06:52:38.508Z,12.10
2023-04-17T06:57:41.397Z,12.50
2023-04-17T07:02:44.668Z,12.68
2023-04-17T07:07:48.215Z,12.67
2023-04-17T07:12:51.603Z,12.84
2023-04-17T07:17:55.334Z,13.04
2023-04-17T07:22:58.269Z,13.08
2023-04-17T07:28:02.583Z,13.20
2023-04-17T07:33:06.920Z,13.42
2023-04-17T07:38:09.835Z,13.68
2023-04-17T07:43:12.807Z,13.84
2023-04-17T07:48:19.077Z,13.87
2023-04-17T07:53:22.524Z,13.95
2023-04-17T07:58:27.333Z,14.25
2023-04-17T08:03:32.058Z,14.55
2023-04-17T08:08:35.094Z,14.57
2023-04-17T08:13:56.970Z,14.01
2023-04-17T08:18:59.870Z,14.47
2023-04-17T08:24:02.772Z,14.49
2023-04-17T08:29:05.612Z,14.80
2023-04-17T08:34:27.479Z,14.71
2023-04-17T08:39:30.578Z,14.85
2023-04-17T08:44:33.621Z,15.05
2023-04-17T08:49:36.968Z,15.25
2023-04-17T08:54:39.866Z,15.06
2023-04-17T08:59:43.124Z,15.47
2023-04-17T09:04:47.330Z,15.49
2023-04-17T09:09:52.797Z,15.43
2023-04-17T09:14:56.131Z,15.30
2023-04-17T09:20:09.197Z,15.36
2023-04-17T09:25:17.805Z,15.61
2023-04-17T09:30:20.987Z,15.62
2023-04-17T09:35:26.278Z,15.79
2023-04-17T09:40:38.266Z,15.66
2023-04-17T09:45:42.925Z,15.79
2023-04-17T09:50:46.560Z,15.78
2023-04-17T09:55:53.353Z,15.97
2023-04-17T10:00:56.768Z,15.80
2023-04-17T10:06:00.805Z,16.08
2023-04-17T10:11:08.966Z,16.44
2023-04-17T10:16:12.258Z,16.71
2023-04-17T10:21:23.350Z,16.45
2023-04-17T10:26:26.308Z,16.62
2023-04-17T10:32:10.827Z,16.62
2023-04-17T10:37:16.989Z,16.46
2023-04-17T10:42:21.423Z,16.63
2023-04-17T10:47:31.611Z,16.88
2023-04-17T10:52:40.852Z,17.18
2023-04-17T10:57:53.853Z,17.17
2023-04-17T11:02:57.030Z,17.08
2023-04-17T11:08:00.352Z,17.31
2023-04-17T11:13:03.242Z,17.29
2023-04-17T11:18:06.565Z,17.26
2023-04-17T11:23:10.026Z,17.83
2023-04-17T11:28:13.363Z,18.04
2023-04-17T11:33:16.828Z,17.75
2023-04-17T11:38:23.949Z,17.98
2023-04-17T11:43:28.742Z,17.93
2023-04-17T11:48:50.805Z,17.77
2023-04-17T11:53:53.743Z,17.43
2023-04-17T11:59:30.849Z,17.45
2023-04-17T12:04:35.862Z,17.88
2023-04-17T12:09:38.979Z,17.86
2023-04-17T12:14:41.985Z,18.28
2023-04-17T12:19:45.538Z,18.73
2023-04-17T12:24:48.243Z,18.80
2023-04-17T12:29:51.212Z,19.35
2023-04-17T12:34:54.083Z,19.85
2023-04-17T12:39:56.904Z,20.29
2023-04-17T12:45:02.111Z,19.64
2023-04-17T12:50:07.104Z,19.75
2023-04-17T12:55:10.788Z,19.86
2023-04-17T13:00:14.196Z,20.27
2023-04-17T13:05:17.301Z,20.38
2023-04-17T13:10:20.182Z,20.65
2023-04-17T13:15:42.649Z,20.78
2023-04-17T13:20:45.858Z,20.56
2023-04-17T13:25:48.672Z,20.29
2023-04-17T13:30:52.990Z,20.41
2023-04-17T13:35:56.104Z,19.99
2023-04-17T13:40:59.026Z,19.81
2023-04-17T13:46:02.353Z,19.89
2023-04-17T13:51:08.334Z,20.04
2023-04-17T13:56:11.771Z,20.04
2023-04-17T14:01:14.760Z,20.11
2023-04-17T14:06:19.082Z,19.80
2023-04-17T14:11:23.093Z,19.20
2023-04-17T14:16:26.182Z,19.20
2023-04-17T14:21:29.360Z,19.10
2023-04-17T14:26:32.756Z,18.80
2023-04-17T14:31:35.673Z,18.80
2023-04-17T14:36:38.613Z,18.72
2023-04-17T14:41:41.430Z,18.47
2023-04-17T14:46:44.581Z,18.08
2023-04-17T14:51:47.769Z,17.87
2023-04-17T14:56:50.834Z,17.70
2023-04-17T15:01:54.122Z,17.54
2023-04-17T15:06:57.153Z,17.40
2023-04-17T15:12:01.836Z,17.17
2023-04-17T15:17:07.069Z,16.78
2023-04-17T15:22:10.299Z,16.40
2023-04-17T15:27:13.340Z,16.24
2023-04-17T15:32:16.406Z,16.08
2023-04-17T15:37:19.423Z,15.94
2023-04-17T15:42:22.944Z,15.78
2023-04-17T15:47:25.954Z,15.52
2023-04-17T15:52:29.149Z,15.27
2023-04-17T15:57:32.021Z,15.03
2023-04-17T16:02:35.081Z,14.76
2023-04-17T16:07:38.024Z,14.58
2023-04-17T16:12:45.000Z,14.36
2023-04-17T16:17:49.102Z,14.17
2023-04-17T16:22:51.994Z,14.01
2023-04-17T16:27:54.829Z,13.88
2023-04-17T16:32:57.930Z,13.75
2023-04-17T16:38:03.402Z,13.60
2023-04-17T16:43:06.427Z,13.50
2023-04-17T16:48:11.322Z,13.35
2023-04-17T16:53:14.740Z,13.24
2023-04-17T16:58:17.443Z,13.10
2023-04-17T17:03:20.266Z,12.95
2023-04-17T17:08:23.672Z,12.79
2023-04-17T17:13:26.441Z,12.69
2023-04-17T17:18:29.320Z,12.58
2023-04-17T17:23:32.433Z,12.45
2023-04-17T17:28:55.554Z,12.27
2023-04-17T17:34:11.767Z,12.06
2023-04-17T17:39:25.239Z,11.90
2023-04-17T17:44:28.174Z,11.80
2023-04-17T17:49:31.163Z,11.67
2023-04-17T17:54:38.052Z,11.57
2023-04-17T17:59:41.176Z,11.50
2023-04-17T18:04:44.284Z,11.37
2023-04-17T18:09:49.480Z,11.31
2023-04-17T18:14:53.757Z,11.22
2023-04-17T18:19:56.692Z,11.07
2023-04-17T18:24:59.646Z,10.99
2023-04-17T18:30:05.114Z,10.87
2023-04-17T18:35:08.839Z,10.79
2023-04-17T18:40:14.621Z,10.70
2023-04-17T18:45:17.993Z,10.63
2023-04-17T18:50:21.653Z,10.54
2023-04-17T18:55:27.300Z,10.52
2023-04-17T19:00:30.241Z,10.50
2023-04-17T19:05:33.369Z,10.38
2023-04-17T19:10:39.928Z,10.33
2023-04-17T19:15:43.310Z,10.30
2023-04-17T19:20:46.690Z,10.24
2023-04-17T19:25:55.897Z,10.21
2023-04-17T19:31:03.734Z,10.22
2023-04-17T19:36:10.659Z,10.16
2023-04-17T19:41:18.816Z,10.14
2023-04-17T19:46:25.708Z,10.04
2023-04-17T19:51:28.793Z,10.00
2023-04-17T19:56:36.912Z,9.89
2023-04-17T20:01:41.495Z,9.82
2023-04-17T20:07:04.799Z,9.74
2023-04-17T20:12:08.102Z,9.71
2023-04-17T20:17:11.356Z,9.62
2023-04-17T20:22:14.470Z,9.54
2023-04-17T20:27:18.195Z,9.43
2023-04-17T20:32:20.885Z,9.37
2023-04-17T20:37:24.005Z,9.29
2023-04-17T20:42:26.899Z,9.19
2023-04-17T20:47:29.835Z,9.16
2023-04-17T20:52:33.379Z,9.10
2023-04-17T20:57:36.727Z,9.09
2023-04-17T21:02:41.549Z,9.06
2023-04-17T21:07:44.692Z,9.06
2023-04-17T21:12:47.672Z,9.02
2023-04-17T21:17:50.674Z,9.03
2023-04-17T21:22:53.605Z,9.05
2023-04-17T21:27:56.615Z,9.05
2023-04-17T21:32:59.647Z,9.07
2023-04-17T21:38:02.799Z,9.08
2023-04-17T21:43:05.839Z,9.12
2023-04-17T21:48:08.638Z,9.12
2023-04-17T21:53:11.844Z,9.11
2023-04-17T21:58:15.156Z,9.05
2023-04-17T22:03:18.520Z,9.00
2023-04-17T22:08:21.444Z,8.94
2023-04-17T22:13:24.394Z,8.91
2023-04-17T22:18:27.945Z,8.83
2023-04-17T22:23:30.920Z,8.80
2023-04-17T22:28:33.778Z,8.71
2023-04-17T22:33:36.641Z,8.60
2023-04-17T22:38:39.488Z,8.53
2023-04-17T22:43:42.438Z,8.49
2023-04-17T22:48:45.308Z,8.45
2023-04-17T22:53:48.445Z,8.38
2023-04-17T22:58:51.709Z,8.32
2023-04-17T23:03:54.703Z,8.26
2023-04-17T23:08:58.521Z,8.25
2023-04-17T23:14:02.193Z,8.17
2023-04-17T23:19:05.158Z,8.18
2023-04-17T23:24:08.373Z,8.11
2023-04-17T23:29:11.299Z,8.05
2023-04-17T23:34:14.324Z,7.97
2023-04-17T23:39:17.339Z,7.94
2023-04-17T23:44:20.371Z,7.91
2023-04-17T23:49:23.260Z,7.82
2023-04-17T23:54:26.110Z,7.75
2023-04-17T23:59:29.227Z,7.72
